Tiempo atmosférico en la estación meteorológica de Villadepera, Zamora (790 m.)



Fecha
DESCASC
Temp. máxima en grados centígrados (hora)
DESCASC
Temp. mínima en grados centígrados (hora)
DESCASC
Temp. media en grados centígrados
DESCASC
Racha de viento máxima en m/sg (hora)
DESCASC
Velocidad máxima media en intervalos de 10 minutos(hora)
DESCASC
Precipitaciones diarias en mm
DESCASC
Precipitaciones de 00:00 a 06:00 en mm
DESCASC
Precipitaciones de 06:00 a 12:00 en mm
DESCASC
Precipitaciones de 12:00 a 18:00 en mm
DESCASC
Precipitaciones de 18:00 a 24:00 en mm
DESCASC
13-10-2019 21 (16:50) 11.9 (07:30) 16.4 14.44 (14:10) 10.83 (13:20) 0 0 0 0 0
12-10-2019 26.5 (16:30) 14.4 (07:20) 20.4 18.06 (16:00) 13.33 (18:20) 0 0 0 0 0
10-10-2019 -- (--) -- (--) -- -- (--) -- (--) -- 0 0 -- 0
09-10-2019 22.6 (17:40) 11.1 (00:00) 16.9 8.33 (23:59) 5.56 (23:50) 0 0 0 0 0
08-10-2019 26.8 (16:40) 12 (00:00) 19.4 11.67 (17:50) 9.17 (18:10) 0 0 0 0 0
07-10-2019 28.2 (17:30) 10 (00:00) 19.1 5.83 (16:20) 4.44 (08:10) 0 0 0 0 0
06-10-2019 24.7 (17:20) 8.7 (00:00) 16.7 8.61 (17:30) 6.39 (19:00) 0 0 0 0 0
05-10-2019 22.8 (17:30) 9.9 (06:30) 16.3 8.89 (18:20) 7.22 (19:50) 0 0 0 0 0
04-10-2019 23.6 (17:40) 12.1 (00:00) 17.9 9.17 (17:10) 6.11 (17:20) 0 0 0 0 0
03-10-2019 25 (17:40) 8.6 (00:00) 16.8 8.89 (13:50) 6.67 (19:20) 0 0 0 0 0
02-10-2019 22.1 (17:20) 7.6 (00:00) 14.9 9.72 (00:10) 7.78 (00:10) 0 0 0 0 0
01-10-2019 22.7 (17:10) 12 (00:00) 17.4 13.61 (14:30) 10 (14:10) 0 0 0 0 0
30-09-2019 27.1 (17:30) 12.8 (00:00) 20 10.28 (18:30) 7.5 (19:00) 0 0 0 0 0
29-09-2019 26.5 (16:30) 9.8 (00:00) 18.2 11.39 (18:00) 7.78 (15:20) 0 0 0 0 0
28-09-2019 26.4 (18:10) 9.2 (00:00) 17.8 6.67 (17:40) 4.72 (19:20) 0 0 0 0 0
27-09-2019 24.3 (16:40) 9.2 (00:00) 16.7 13.06 (17:10) 8.33 (17:20) 0 0 0 0 0
26-09-2019 25 (16:50) 9.1 (00:00) 17.1 9.72 (16:20) 7.22 (16:10) 0 0 0 0 0
25-09-2019 21.5 (17:20) 8 (00:00) 14.8 11.39 (18:30) 6.67 (19:10) 0 0 0 0 0
24-09-2019 21.6 (16:30) 10.9 (00:00) 16.3 15 (18:20) 11.67 (18:10) 0 0 0 0 0
23-09-2019 21.9 (17:00) 8.3 (00:00) 15.1 10.28 (18:00) 7.5 (18:00) 0 0 0 0 0
22-09-2019 18.8 (16:40) 10.1 (00:00) 14.4 12.22 (17:00) 8.06 (00:10) 0 0 0 0 0
21-09-2019 18.8 (16:10) 11.4 (00:00) 15.1 15.83 (16:50) 11.94 (16:50) 0.8 0 0.2 0 0.6
20-09-2019 26.3 (16:10) 15.3 (00:00) 20.8 11.67 (13:30) 7.78 (18:50) 0 0 0 0 0
19-09-2019 28.1 (18:10) 14.7 (00:00) 21.4 8.33 (15:00) 5.28 (10:40) 0 0 0 0 0
18-09-2019 27.4 (18:20) 12.8 (00:00) 20.1 8.61 (03:00) 5.56 (03:40) 0 0 0 0 0
17-09-2019 26.9 (16:10) 14.4 (00:00) 20.6 11.67 (18:50) 8.33 (18:50) 0 0 0 0 0
16-09-2019 24.6 (16:20) 14.7 (00:00) 19.7 10.56 (18:00) 7.5 (18:00) 0.4 0 0 0 0.4

Gráficas

Temp. máximas Temp. mínimas Temp. medias Precipitaciones Rachas de viento máximas Velocidades máximas media en intervalos de 10 minutos

Datos horarios

Fecha y hora oficial Temperatura (ºC) Velocidad del viento (km/h) Dirección del viento Racha (km/h) Dirección de racha Precipitación (mm) Presión (hPa) Tendencia (hPa) Humedad (%)
2019-10-15 23:00:00 10.4 17 Sudoeste 28 Oeste 0 -- -- 85
2019-10-15 22:00:00 10.4 17 Sudoeste 31 Oeste 0 -- -- 85
2019-10-15 21:00:00 11.2 12 Sudoeste 22 Sudoeste 0 -- -- 76
2019-10-15 20:00:00 11.5 18 Sudoeste 26 Sudoeste 0 -- -- 72
2019-10-15 19:00:00 12 18 Sudoeste 41 Sudoeste 0 -- -- 72
2019-10-15 18:00:00 12.6 26 Sudoeste 36 Sudoeste 0 -- -- 65
2019-10-15 17:00:00 13.1 23 Sudoeste 34 Oeste 0 -- -- 63
2019-10-15 16:00:00 12.2 22 Sudoeste 30 Sudoeste 0 -- -- 70
2019-10-15 15:00:00 11.9 24 Sudoeste 33 Sudoeste 0 -- -- 73
2019-10-15 14:00:00 10.9 19 Sudoeste 30 Sudoeste 0 -- -- 78
2019-10-15 13:00:00 10.2 18 Sudoeste 26 Sudoeste 0 -- -- 83
2019-10-15 12:00:00 9 15 Sudoeste 21 Sudoeste 0 -- -- 90
2019-10-15 11:00:00 7.6 17 Sudoeste 27 Sudoeste 0 -- -- 96
2019-10-15 10:00:00 6.6 15 Sudoeste 21 Sudoeste 0 -- -- 98
2019-10-15 09:00:00 5.7 14 Sudoeste 18 Sudoeste 0 -- -- 98
2019-10-15 08:00:00 5 13 Sudoeste 16 Sudoeste 0 -- -- 98
2019-10-15 07:00:00 4.6 10 Sudoeste 23 Sudoeste 0 -- -- 98
2019-10-15 06:00:00 5 20 Oeste 26 Oeste 0 -- -- 97
2019-10-15 05:00:00 5.2 18 Sudoeste 27 Sudoeste 0 -- -- 95
2019-10-15 04:00:00 5.1 20 Sudoeste 26 Sudoeste 0 -- -- 95
2019-10-15 03:00:00 5.8 15 Sudoeste 29 Sudoeste 0 -- -- 93
2019-10-15 02:00:00 5.1 18 Oeste 23 Oeste 0 -- -- 93
2019-10-15 01:00:00 5.6 21 Oeste 33 Sudoeste 0 -- -- 92
2019-10-15 00:00:00 5.9 19 Sudoeste 25 Sudoeste 0 -- -- 91
2019-10-14 23:00:00 6 14 Sudoeste 29 Oeste 0 -- -- 92
2019-10-14 22:00:00 6.7 22 Oeste 29 Oeste 0 -- -- 89
2019-10-14 21:00:00 6.3 20 Sudoeste 30 Sudoeste 0 -- -- 96
2019-10-14 20:00:00 6.4 20 Oeste 43 Oeste 0.4 -- -- 95
2019-10-14 19:00:00 7 36 Oeste 48 Oeste 1.8 -- -- 90
2019-10-14 18:00:00 10.2 30 Oeste 41 Oeste 0 -- -- 86
2019-10-14 17:00:00 8.2 26 Sudoeste 63 Sudoeste 0.4 -- -- 94
2019-10-14 16:00:00 11.2 28 Sudoeste 47 Sudoeste 0 -- -- 86
2019-10-14 15:00:00 11.2 27 Sudoeste 49 Sudoeste 0 -- -- 94
2019-10-14 14:00:00 10.4 31 Sudoeste 44 Sudoeste 0 -- -- 94
2019-10-14 13:00:00 10.3 26 Sudoeste 46 Sudoeste 0 -- -- 93
2019-10-14 12:00:00 11.2 33 Sudoeste 54 Sudoeste 0 -- -- 85
2019-10-14 11:00:00 10.7 28 Sudoeste 40 Sudoeste 0 -- -- 95
2019-10-14 10:00:00 9.3 18 Sudoeste 25 Sudoeste 0 -- -- 98
2019-10-14 09:00:00 9.2 15 Oeste 34 Oeste 1.2 -- -- 97
2019-10-14 08:00:00 9.7 27 Oeste 49 Sudoeste 6 -- -- 96
2019-10-14 07:00:00 13.3 22 Sudoeste 32 Sudoeste 0 -- -- 84
2019-10-14 06:00:00 14.2 20 Sudoeste 32 Sudoeste 0 -- -- 78
2019-10-14 05:00:00 14 22 Sudoeste 29 Sudoeste 0 -- -- 77
2019-10-14 04:00:00 13.5 18 Sudoeste 25 Sudoeste 0 -- -- 76
2019-10-14 03:00:00 13.8 17 Sur 23 Sur 0 -- -- 73
2019-10-14 02:00:00 14.1 17 Sur 24 Sur 0 -- -- 72
2019-10-14 01:00:00 13.8 18 Sur 23 Sur 0 -- -- 74
2019-10-14 00:00:00 13.3 14 Sur 18 Sur 0 -- -- 75
2019-10-13 23:00:00 14.9 14 Sur 24 Sur 0 -- -- 70
2019-10-13 22:00:00 15.4 10 Sudoeste 31 Sudoeste 0 -- -- 66
2019-10-13 21:00:00 16 22 Sur 42 Sur 0 -- -- 62
2019-10-13 20:00:00 16.9 28 Sur 40 Sur 0 -- -- 59
2019-10-13 19:00:00 18.8 33 Sur 49 Sudoeste 0 -- -- 54
2019-10-13 18:00:00 20.1 34 Sudoeste 49 Sur 0 -- -- 51
2019-10-13 17:00:00 21 31 Sudoeste 49 Sur 0 -- -- 47
2019-10-13 16:00:00 19.9 32 Sudoeste 47 Sudoeste 0 -- -- 54
2019-10-13 15:00:00 19.9 31 Sudoeste 52 Sudoeste 0 -- -- 57
2019-10-13 14:00:00 19.7 35 Sudoeste 51 Sudoeste 0 -- -- 57
2019-10-13 13:00:00 18.2 37 Sudoeste 51 Sudoeste 0 -- -- 61
2019-10-13 12:00:00 16.2 32 Sudoeste 49 Sudoeste 0 -- -- 69
2019-10-13 11:00:00 14.8 35 Sudoeste 46 Sudoeste 0 -- -- 75
2019-10-13 10:00:00 13.8 26 Sudoeste 36 Sudoeste 0 -- -- 79
2019-10-13 09:00:00 13 21 Sudoeste 34 Sudoeste 0 -- -- 83
2019-10-13 08:00:00 12.1 23 Sudoeste 36 Sudoeste 0 -- -- 86
2019-10-13 07:00:00 12.3 25 Sudoeste 47 Sudoeste 0 -- -- 86
2019-10-13 06:00:00 12.4 32 Sudoeste 42 Sudoeste 0 -- -- 86
2019-10-13 05:00:00 13 21 Sudoeste 29 Sudoeste 0 -- -- 88
2019-10-13 04:00:00 13 21 Sudoeste 28 Sudoeste 0 -- -- 87
2019-10-13 03:00:00 14.1 20 Sudoeste 30 Sur 0 -- -- 83
2019-10-13 02:00:00 14.6 17 Sudoeste 24 Sudoeste 0 -- -- 84
2019-10-13 01:00:00 16 19 Sudoeste 37 Sudoeste 0 -- -- 79
2019-10-13 00:00:00 16.7 17 Sudoeste 29 Sudoeste 0 -- -- 74
2019-10-12 23:00:00 18.7 21 Sudoeste 39 Sudoeste 0 -- -- 66
2019-10-12 22:00:00 21.2 24 Sudoeste 45 Sur 0 -- -- 46
2019-10-12 21:00:00 22.7 35 Sudoeste 55 Sudoeste 0 -- -- 42
2019-10-12 20:00:00 23.2 33 Sudoeste 55 Sur 0 -- -- 39
2019-10-12 19:00:00 24.2 41 Sudoeste 64 Sudoeste 0 -- -- 38
2019-10-12 18:00:00 25.5 40 Sudoeste 62 Sur 0 -- -- 35
2019-10-12 17:00:00 25.8 42 Sudoeste 63 Sur 0 -- -- 35
2019-10-12 16:00:00 26.2 41 Sudoeste 65 Sudoeste 0 -- -- 35
2019-10-12 15:00:00 25.9 34 Sudoeste 57 Sudoeste 0 -- -- 37
2019-10-12 14:00:00 25.4 37 Sudoeste 59 Sudoeste 0 -- -- 38
2019-10-12 13:00:00 23.1 19 Sudoeste 35 Sudoeste 0 -- -- 51
2019-10-12 12:00:00 20 18 Sudoeste 30 Sudoeste 0 -- -- 63
2019-10-12 11:00:00 18.2 16 Sudoeste 26 Sudoeste 0 -- -- 69
2019-10-12 10:00:00 16.9 19 Sudoeste 27 Sudoeste 0 -- -- 73
2019-10-12 09:00:00 15.1 18 Sudoeste 25 Sudoeste 0 -- -- 78
2019-10-12 08:00:00 15.5 15 Sudoeste 22 Sudoeste 0 -- -- 76
2019-10-12 07:00:00 14.6 17 Sudoeste 18 Sudoeste 0 -- -- 74
2019-10-12 06:00:00 15 12 Sudoeste 21 Sudoeste 0 -- -- 70
2019-10-12 05:00:00 16.3 18 Sudoeste 26 Sudoeste 0 -- -- 68
2019-10-12 04:00:00 17.5 19 Sudoeste 29 Sudoeste 0 -- -- 62
2019-10-12 03:00:00 17.9 19 Sudoeste 24 Sudoeste 0 -- -- 59
2019-10-12 02:00:00 17.8 18 Sudoeste 24 Sudoeste 0 -- -- 59
2019-10-12 01:00:00 17.7 15 Sudoeste 23 Sudoeste 0 -- -- 61
2019-10-12 00:00:00 18.8 21 Sudoeste 28 Sudoeste 0 -- -- 60
2019-10-11 23:00:00 19.7 23 Sudoeste 34 Sudoeste 0 -- -- 57
2019-10-11 22:00:00 19.9 23 Sudoeste 28 Sudoeste 0 -- -- 58
2019-10-11 21:00:00 21.1 20 Sudoeste 29 Sudoeste 0 -- -- 54
2019-10-11 20:00:00 22.8 23 Sudoeste 41 Sudoeste 0 -- -- 49
2019-10-11 19:00:00 24.9 20 Sudoeste 34 Sudoeste 0 -- -- 40
2019-10-11 18:00:00 26.3 23 Sur 41 Sur 0 -- -- 40
2019-10-11 17:00:00 27.2 26 Sudoeste 46 Sudoeste 0 -- -- 38
2019-10-11 16:00:00 26.8 15 Sudoeste 33 Sudoeste 0 -- -- 37
2019-10-11 15:00:00 26.8 15 Sudoeste 32 Sudoeste 0 -- -- 36
2019-10-11 14:00:00 25.6 18 Sudoeste 27 Sudoeste 0 -- -- 37
2019-10-11 13:00:00 22.1 7 Sudoeste 14 Sudoeste 0 -- -- 41
2019-10-11 12:00:00 18.2 9 Este 15 Sudeste 0 -- -- 47
2019-10-11 11:00:00 14.9 9 Este 13 Este 0 -- -- 56
2019-10-11 10:00:00 11.4 7 Este 11 Sudeste 0 -- -- 64
2019-10-11 09:00:00 8.5 9 Sudeste 15 Sudeste 0 -- -- 72
2019-10-11 08:00:00 8.7 13 Sudeste 15 Sudeste 0 -- -- 70
2019-10-11 07:00:00 9.4 6 Este 13 Sudeste 0 -- -- 70
2019-10-11 06:00:00 10 11 Sudeste 13 Sudeste 0 -- -- 65
2019-10-11 05:00:00 11 7 Este 11 Este 0 -- -- 62
2019-10-11 04:00:00 12.2 7 Este 9 Este 0 -- -- 58
2019-10-11 03:00:00 13.2 8 Este 10 Nordeste 0 -- -- 54
2019-10-11 02:00:00 14.4 7 Este 9 Este 0 -- -- 50
2019-10-11 01:00:00 15.2 6 Este 10 Nordeste 0 -- -- 47
2019-10-11 00:00:00 15.5 8 Nordeste 12 Nordeste 0 -- -- 46
2019-10-10 23:00:00 16.6 9 Nordeste 13 Norte 0 -- -- 44
2019-10-10 22:00:00 17.8 11 Norte 14 Nordeste 0 -- -- 42
2019-10-10 21:00:00 17.8 9 Nordeste 11 Nordeste 0 -- -- 44
2019-10-10 20:00:00 19 9 Nordeste 13 Nordeste 0 -- -- 42
2019-10-10 19:00:00 21.6 11 Nordeste 19 Nordeste 0 -- -- 38
2019-10-10 18:00:00 22.7 9 Este 28 Este 0 -- -- 36
2019-10-10 17:00:00 -- -- -- -- -- -- -- -- --
2019-10-10 16:00:00 21.6 12 Nordeste 27 Este 0 -- -- 39
2019-10-10 15:00:00 20.6 17 Este 33 Este 0 -- -- 42
2019-10-10 14:00:00 19.1 21 Este 30 Nordeste 0 -- -- 47
2019-10-10 13:00:00 17 21 Nordeste 31 Este 0 -- -- 54
2019-10-10 12:00:00 14.8 18 Nordeste 30 Este 0 -- -- 61
2019-10-10 11:00:00 13 23 Este 30 Nordeste 0 -- -- 67
2019-10-10 10:00:00 10.7 20 Nordeste 30 Nordeste 0 -- -- 75
2019-10-10 09:00:00 8.9 17 Nordeste 28 Nordeste 0 -- -- 83
2019-10-10 08:00:00 8.4 19 Nordeste 30 Nordeste 0 -- -- 86
2019-10-10 07:00:00 8.7 17 Nordeste 32 Nordeste 0 -- -- 84
2019-10-10 06:00:00 8.7 18 Nordeste 31 Nordeste 0 -- -- 84
2019-10-10 05:00:00 9.1 19 Nordeste 33 Nordeste 0 -- -- 81
2019-10-10 04:00:00 9.5 21 Nordeste 31 Nordeste 0 -- -- 80
2019-10-10 03:00:00 9.9 19 Nordeste 28 Nordeste 0 -- -- 77
2019-10-10 02:00:00 10.6 20 Nordeste 28 Nordeste 0 -- -- 71
2019-10-10 01:00:00 12 16 Nordeste 31 Nordeste 0 -- -- 67
2019-10-10 00:00:00 13.8 19 Nordeste 30 Nordeste 0 -- -- 51
2019-10-09 23:00:00 15.1 8 Nordeste 10 Nordeste 0 -- -- 42
2019-10-09 22:00:00 16.1 6 Nordeste 9 Nordeste 0 -- -- 40
2019-10-09 21:00:00 16.9 5 Este 9 Nordeste 0 -- -- 37
2019-10-09 20:00:00 18.4 6 Este 12 Este 0 -- -- 33
2019-10-09 19:00:00 21.6 10 Este 13 Este 0 -- -- 28
2019-10-09 18:00:00 22.2 5 Nordeste 15 Nordeste 0 -- -- 26
2019-10-09 17:00:00 22.2 6 Nordeste 18 Nordeste 0 -- -- 26
2019-10-09 16:00:00 21.6 8 Nordeste 20 Nordeste 0 -- -- 27
2019-10-09 15:00:00 20.8 12 Nordeste 23 Nordeste 0 -- -- 29
2019-10-09 14:00:00 19.8 15 Nordeste 25 Norte 0 -- -- 31
2019-10-09 13:00:00 18.6 13 Nordeste 24 Nordeste 0 -- -- 37
2019-10-09 12:00:00 16.8 19 Nordeste 29 Nordeste 0 -- -- 38
2019-10-09 11:00:00 14.9 13 Este 19 Este 0 -- -- 64
2019-10-09 10:00:00 13 13 Sudeste 17 Sudeste 0 -- -- 85
2019-10-09 09:00:00 11.7 3 Este 5 Este 0 -- -- 94
2019-10-09 08:00:00 11.4 0 Calma 9 Noroeste 0 -- -- 93
2019-10-09 07:00:00 11.1 5 Oeste 10 Sur 0 -- -- 95
2019-10-09 06:00:00 12.4 3 Sudoeste 24 Oeste 0 -- -- 95
2019-10-09 05:00:00 13.1 15 Oeste 22 Oeste 0 -- -- 96
2019-10-09 04:00:00 13.1 16 Oeste 19 Oeste 0 -- -- 95
2019-10-09 03:00:00 13.8 3 Sudoeste 10 Oeste 0 -- -- 90
2019-10-09 02:00:00 14.7 7 Sudoeste 20 Oeste 0 -- -- 87
2019-10-09 01:00:00 15.4 15 Oeste 19 Oeste 0 -- -- 85
2019-10-09 00:00:00 16.4 16 Oeste 22 Oeste 0 -- -- 80
2019-10-08 23:00:00 18.5 17 Oeste 25 Oeste 0 -- -- 72
2019-10-08 22:00:00 19.3 18 Oeste 24 Oeste 0 -- -- 68
2019-10-08 21:00:00 20.6 12 Noroeste 23 Oeste 0 -- -- 62
2019-10-08 20:00:00 22.4 20 Oeste 35 Sudoeste 0 -- -- 56
2019-10-08 19:00:00 24.7 26 Oeste 42 Oeste 0 -- -- 48
2019-10-08 18:00:00 26 28 Oeste 42 Sudoeste 0 -- -- 43
2019-10-08 17:00:00 26.5 29 Oeste 38 Oeste 0 -- -- 43
2019-10-08 16:00:00 26.5 25 Oeste 37 Oeste 0 -- -- 41
2019-10-08 15:00:00 26.3 23 Oeste 39 Oeste 0 -- -- 40
2019-10-08 14:00:00 25 19 Oeste 30 Sudoeste 0 -- -- 43
2019-10-08 13:00:00 23.5 14 Sudoeste 26 Sudoeste 0 -- -- 50
2019-10-08 12:00:00 20.6 16 Oeste 23 Oeste 0 -- -- 49
2019-10-08 11:00:00 18.6 10 Sudoeste 18 Sudoeste 0 -- -- 53
2019-10-08 10:00:00 15.5 8 Sudeste 12 Sudeste 0 -- -- 55
2019-10-08 09:00:00 13.3 5 Sur 8 Sur 0 -- -- 62
2019-10-08 08:00:00 12.2 8 Sudeste 13 Sudeste 0 -- -- 63
2019-10-08 07:00:00 13.6 3 Sudeste 7 Noroeste 0 -- -- 61
2019-10-08 06:00:00 15.1 8 Oeste 12 Oeste 0 -- -- 57
2019-10-08 05:00:00 15.8 12 Oeste 14 Oeste 0 -- -- 53
2019-10-08 04:00:00 16.9 11 Oeste 13 Sudoeste 0 -- -- 52
2019-10-08 03:00:00 17.1 6 Sudoeste 10 Sudoeste 0 -- -- 51
2019-10-08 02:00:00 17.3 6 Sudoeste 9 Sudoeste 0 -- -- 50
2019-10-08 01:00:00 18.1 8 Sudoeste 10 Sudoeste 0 -- -- 46
2019-10-08 00:00:00 19.9 3 Sudeste 9 Oeste 0 -- -- 40
2019-10-07 23:00:00 20.1 10 Oeste 13 Oeste 0 -- -- 39
2019-10-07 22:00:00 20.5 11 Oeste 15 Oeste 0 -- -- 40
2019-10-07 21:00:00 21.8 12 Oeste 14 Oeste 0 -- -- 37
2019-10-07 20:00:00 24.3 9 Oeste 13 Oeste 0 -- -- 32
2019-10-07 19:00:00 27.4 7 Oeste 14 Sudoeste 0 -- -- 28
2019-10-07 18:00:00 27.9 9 Sudoeste 15 Sudoeste 0 -- -- 28
2019-10-07 17:00:00 28 10 Sur 21 Sudoeste 0 -- -- 27
2019-10-07 16:00:00 26.8 5 Sur 17 Oeste 0 -- -- 27
2019-10-07 15:00:00 25.5 6 Oeste 15 Oeste 0 -- -- 29
2019-10-07 14:00:00 23.9 4 Noroeste 14 Sudoeste 0 -- -- 37
2019-10-07 13:00:00 21.4 5 Sur 13 Este 0 -- -- 47
2019-10-07 12:00:00 18.3 7 Este 16 Este 0 -- -- 60
2019-10-07 11:00:00 15.1 10 Este 19 Nordeste 0 -- -- 72
2019-10-07 10:00:00 11.7 7 Nordeste 11 Este 0 -- -- 84
2019-10-07 09:00:00 10.7 8 Este 18 Nordeste 0 -- -- 87
2019-10-07 08:00:00 10.3 15 Nordeste 17 Nordeste 0 -- -- 88
2019-10-07 07:00:00 10.5 6 Nordeste 8 Nordeste 0 -- -- 79
2019-10-07 06:00:00 10.9 8 Este 11 Este 0 -- -- 67
2019-10-07 05:00:00 12.6 5 Este 10 Sudeste 0 -- -- 60
2019-10-07 04:00:00 13.4 8 Sudeste 10 Este 0 -- -- 58
2019-10-07 03:00:00 13.3 3 Sudeste 9 Este 0 -- -- 56
2019-10-07 02:00:00 15.5 7 Oeste 14 Oeste 0 -- -- 51
2019-10-07 01:00:00 16.3 10 Oeste 12 Oeste 0 -- -- 49
2019-10-07 00:00:00 16.3 10 Oeste 18 Noroeste 0 -- -- 48
2019-10-06 23:00:00 17.7 13 Noroeste 19 Oeste 0 -- -- 47
2019-10-06 22:00:00 19 14 Oeste 28 Oeste 0 -- -- 39
2019-10-06 21:00:00 19.3 15 Oeste 23 Oeste 0 -- -- 43
2019-10-06 20:00:00 20.8 19 Oeste 26 Oeste 0 -- -- 39
2019-10-06 19:00:00 23.6 23 Oeste 30 Oeste 0 -- -- 36
2019-10-06 18:00:00 24.3 21 Oeste 31 Oeste 0 -- -- 33
2019-10-06 17:00:00 24.4 16 Oeste 26 Oeste 0 -- -- 35
2019-10-06 16:00:00 23.5 12 Sudoeste 24 Oeste 0 -- -- 40
2019-10-06 15:00:00 22.4 11 Oeste 22 Oeste 0 -- -- 45
2019-10-06 14:00:00 20.3 5 Sur 13 Nordeste 0 -- -- 51
2019-10-06 13:00:00 18.3 6 Nordeste 20 Este 0 -- -- 60
2019-10-06 12:00:00 16.4 12 Este 19 Este 0 -- -- 68
2019-10-06 11:00:00 14.1 8 Este 15 Este 0 -- -- 78
2019-10-06 10:00:00 11.9 3 Sudeste 6 Sudeste 0 -- -- 91
2019-10-06 09:00:00 9.6 5 Sudeste 7 Este 0 -- -- 96
2019-10-06 08:00:00 9 6 Sudeste 8 Sudoeste 0 -- -- 92
2019-10-06 07:00:00 10.2 0 Calma 6 Sudoeste 0 -- -- 93
2019-10-06 06:00:00 10.3 4 Oeste 12 Sudoeste 0 -- -- 91
2019-10-06 05:00:00 10 11 Sudoeste 13 Oeste 0 -- -- 91
2019-10-06 04:00:00 10.5 11 Oeste 20 Oeste 0 -- -- 88
2019-10-06 03:00:00 11.7 15 Oeste 20 Oeste 0 -- -- 83
2019-10-06 02:00:00 12.2 14 Oeste 20 Oeste 0 -- -- 81
2019-10-06 01:00:00 13 19 Oeste 23 Oeste 0 -- -- 79
2019-10-06 00:00:00 13.8 15 Oeste 23 Oeste 0 -- -- 77
2019-10-05 23:00:00 14.9 21 Oeste 27 Oeste 0 -- -- 69
2019-10-05 22:00:00 16.2 24 Oeste 27 Oeste 0 -- -- 64
2019-10-05 21:00:00 15.9 21 Oeste 25 Oeste 0 -- -- 60
2019-10-05 20:00:00 17.9 19 Oeste 31 Oeste 0 -- -- 56
2019-10-05 19:00:00 21.3 23 Oeste 32 Oeste 0 -- -- 40
2019-10-05 18:00:00 22.5 22 Oeste 29 Oeste 0 -- -- 42
2019-10-05 17:00:00 22.5 17 Oeste 30 Sudoeste 0 -- -- 46
2019-10-05 16:00:00 21.7 18 Sudoeste 30 Oeste 0 -- -- 54
2019-10-05 15:00:00 20.9 18 Sudoeste 29 Sudoeste 0 -- -- 58
2019-10-05 14:00:00 20.2 17 Sudoeste 26 Sudoeste 0 -- -- 61
2019-10-05 13:00:00 19.2 6 Sudoeste 16 Oeste 0 -- -- 65
2019-10-05 12:00:00 17.2 2 Nordeste 8 Este 0 -- -- 72
2019-10-05 11:00:00 14.3 5 Este 10 Este 0 -- -- 82
2019-10-05 10:00:00 12.2 3 Este 8 Nordeste 0 -- -- 92
2019-10-05 09:00:00 11.3 4 Nordeste 5 Nordeste 0 -- -- 97
2019-10-05 08:00:00 10.3 3 Este 8 Este 0 -- -- 95
2019-10-05 07:00:00 10.6 4 Este 7 Este 0 -- -- 97
2019-10-05 06:00:00 11.9 7 Noroeste 9 Oeste 0 -- -- 94
2019-10-05 05:00:00 12.7 6 Oeste 7 Oeste 0 -- -- 91
2019-10-05 04:00:00 12.6 9 Oeste 13 Oeste 0 -- -- 90
2019-10-05 03:00:00 13.1 12 Oeste 13 Oeste 0 -- -- 88
2019-10-05 02:00:00 13.4 12 Oeste 13 Oeste 0 -- -- 85
2019-10-05 01:00:00 14.5 9 Oeste 9 Oeste 0 -- -- 79
2019-10-05 00:00:00 15.1 6 Oeste 15 Noroeste 0 -- -- 74
2019-10-04 23:00:00 16 12 Noroeste 17 Oeste 0 -- -- 72
2019-10-04 22:00:00 16.6 11 Oeste 13 Oeste 0 -- -- 66
2019-10-04 21:00:00 17.7 10 Oeste 15 Sudoeste 0 -- -- 62
2019-10-04 20:00:00 20.1 13 Oeste 27 Oeste 0 -- -- 55
2019-10-04 19:00:00 22.7 19 Oeste 27 Oeste 0 -- -- 47
2019-10-04 18:00:00 23.4 19 Oeste 33 Oeste 0 -- -- 45
2019-10-04 17:00:00 23.2 18 Oeste 30 Oeste 0 -- -- 46
2019-10-04 16:00:00 22.9 18 Sudoeste 32 Sudoeste 0 -- -- 49
2019-10-04 15:00:00 22.3 15 Sudoeste 30 Sudoeste 0 -- -- 53
2019-10-04 14:00:00 20.9 12 Oeste 27 Oeste 0 -- -- 59
2019-10-04 13:00:00 19.1 16 Oeste 24 Oeste 0 -- -- 69
2019-10-04 12:00:00 17.4 9 Oeste 18 Oeste 0 -- -- 83
2019-10-04 11:00:00 14.4 9 Oeste 16 Sudoeste 0 -- -- 98
2019-10-04 10:00:00 13.7 9 Sudoeste 12 Sudoeste 0 -- -- 98
2019-10-04 09:00:00 13.5 9 Oeste 14 Oeste 0 -- -- 97
2019-10-04 08:00:00 13.1 8 Oeste 17 Sudoeste 0 -- -- 96
2019-10-04 07:00:00 13.1 12 Oeste 17 Oeste 0 -- -- 96
2019-10-04 06:00:00 12.2 8 Sudoeste 14 Sudoeste 0 -- -- 95
2019-10-04 05:00:00 12.7 14 Oeste 17 Sudoeste 0 -- -- 94
2019-10-04 04:00:00 13 11 Oeste 15 Sudoeste 0 -- -- 93
2019-10-04 03:00:00 13.6 12 Oeste 16 Oeste 0 -- -- 89
2019-10-04 02:00:00 13.8 10 Oeste 17 Oeste 0 -- -- 87
2019-10-04 01:00:00 14.5 14 Oeste 18 Oeste 0 -- -- 83
2019-10-04 00:00:00 15.2 13 Oeste 19 Oeste 0 -- -- 77
2019-10-03 23:00:00 16.7 16 Oeste 22 Oeste 0 -- -- 71
2019-10-03 22:00:00 18 18 Oeste 24 Noroeste 0 -- -- 65
2019-10-03 21:00:00 19.1 19 Oeste 28 Oeste 0 -- -- 54
2019-10-03 20:00:00 21.1 19 Oeste 32 Oeste 0 -- -- 46
2019-10-03 19:00:00 23.8 24 Oeste 32 Sudoeste 0 -- -- 38
2019-10-03 18:00:00 24.7 21 Oeste 30 Sudoeste 0 -- -- 30
2019-10-03 17:00:00 24.5 18 Sudoeste 28 Sudoeste 0 -- -- 32
2019-10-03 16:00:00 23.7 14 Oeste 29 Oeste 0 -- -- 36
2019-10-03 15:00:00 22.7 21 Oeste 31 Oeste 0 -- -- 38
2019-10-03 14:00:00 21.2 20 Oeste 32 Sudoeste 0 -- -- 44
2019-10-03 13:00:00 19.2 15 Oeste 23 Oeste 0 -- -- 50
2019-10-03 12:00:00 16.9 7 Oeste 15 Sudoeste 0 -- -- 59
2019-10-03 11:00:00 13.5 7 Este 15 Este 0 -- -- 67
2019-10-03 10:00:00 10.7 5 Sudeste 7 Sudeste 0 -- -- 75
2019-10-03 09:00:00 8.9 4 Sudeste 6 Sudeste 0 -- -- 80
2019-10-03 08:00:00 8.7 6 Este 9 Nordeste 0 -- -- 80
2019-10-03 07:00:00 9 8 Nordeste 11 Nordeste 0 -- -- 76
2019-10-03 06:00:00 9.7 10 Nordeste 11 Nordeste 0 -- -- 71
2019-10-03 05:00:00 10.2 7 Nordeste 9 Este 0 -- -- 70
2019-10-03 04:00:00 10.6 7 Nordeste 14 Nordeste 0 -- -- 67
2019-10-03 03:00:00 10.3 12 Nordeste 23 Este 0 -- -- 67
2019-10-03 02:00:00 14.6 3 Nordeste 6 Norte 0 -- -- 54
2019-10-03 01:00:00 15.1 6 Norte 10 Norte 0 -- -- 53
2019-10-03 00:00:00 14.5 9 Norte 12 Norte 0 -- -- 51
2019-10-02 23:00:00 16.9 3 Noroeste 5 Noroeste 0 -- -- 46
2019-10-02 22:00:00 16.2 4 Este 9 Oeste 0 -- -- 47
2019-10-02 21:00:00 17.1 9 Oeste 13 Oeste 0 -- -- 45
2019-10-02 20:00:00 18.9 10 Oeste 14 Sur 0 -- -- 41
2019-10-02 19:00:00 21.7 4 Sudeste 17 Nordeste 0 -- -- 35
2019-10-02 18:00:00 21.9 8 Nordeste 17 Norte 0 -- -- 35
2019-10-02 17:00:00 21.6 10 Norte 30 Nordeste 0 -- -- 35
2019-10-02 16:00:00 21.1 8 Este 21 Nordeste 0 -- -- 37
2019-10-02 15:00:00 20.4 7 Nordeste 27 Sudoeste 0 -- -- 39
2019-10-02 14:00:00 18.6 6 Norte 22 Nordeste 0 -- -- 44
2019-10-02 13:00:00 17.4 10 Norte 19 Nordeste 0 -- -- 47
2019-10-02 12:00:00 15.1 10 Noroeste 18 Nordeste 0 -- -- 59
2019-10-02 11:00:00 12.6 4 Oeste 12 Oeste 0 -- -- 75
2019-10-02 10:00:00 9.9 5 Sudoeste 8 Sudoeste 0 -- -- 92
2019-10-02 09:00:00 8.5 0 Calma 4 Oeste 0 -- -- 94
2019-10-02 08:00:00 7.6 6 Sudoeste 14 Oeste 0 -- -- 93
2019-10-02 07:00:00 7.9 14 Oeste 20 Oeste 0 -- -- 91
2019-10-02 06:00:00 8.6 15 Oeste 20 Oeste 0 -- -- 91
2019-10-02 05:00:00 9.4 15 Oeste 27 Oeste 0 -- -- 90
2019-10-02 04:00:00 9.9 17 Oeste 24 Oeste 0 -- -- 88
2019-10-02 03:00:00 10.2 16 Oeste 27 Sudoeste 0 -- -- 85
2019-10-02 02:00:00 10.9 14 Oeste 31 Oeste 0 -- -- 79
2019-10-02 01:00:00 12.6 20 Oeste 35 Oeste 0 -- -- 72
2019-10-02 00:00:00 13.7 30 Oeste 40 Oeste 0 -- -- 69
2019-10-01 23:00:00 14.6 21 Oeste 39 Oeste 0 -- -- 72
2019-10-01 22:00:00 16 25 Oeste 41 Oeste 0 -- -- 66
2019-10-01 21:00:00 17.5 30 Oeste 41 Oeste 0 -- -- 59
2019-10-01 20:00:00 19.2 29 Oeste 44 Oeste 0 -- -- 52
2019-10-01 19:00:00 21.4 30 Oeste 41 Oeste 0 -- -- 45
2019-10-01 18:00:00 22.3 34 Oeste 49 Oeste 0 -- -- 43
2019-10-01 17:00:00 22.6 33 Sudoeste 49 Oeste 0 -- -- 43
2019-10-01 16:00:00 22.4 28 Oeste 46 Oeste 0 -- -- 46
2019-10-01 15:00:00 21.4 30 Oeste 49 Oeste 0 -- -- 48
2019-10-01 14:00:00 20.7 29 Oeste 45 Oeste 0 -- -- 53
2019-10-01 13:00:00 18.1 25 Oeste 37 Noroeste 0 -- -- 69
2019-10-01 12:00:00 16.5 24 Oeste 40 Oeste 0 -- -- 75
2019-10-01 11:00:00 17 26 Oeste 39 Oeste 0 -- -- 73
2019-10-01 10:00:00 14.3 24 Oeste 34 Oeste 0 -- -- 87
2019-10-01 09:00:00 12.5 17 Sudoeste 25 Oeste 0 -- -- 95
2019-10-01 08:00:00 12 15 Oeste 26 Oeste 0 -- -- 96
2019-10-01 07:00:00 12.6 21 Oeste 31 Oeste 0 -- -- 94
2019-10-01 06:00:00 13.2 18 Oeste 24 Oeste 0 -- -- 92
2019-10-01 05:00:00 14.1 21 Oeste 33 Oeste 0 -- -- 89
2019-10-01 04:00:00 14.9 21 Oeste 24 Sudoeste 0 -- -- 85
2019-10-01 03:00:00 15.4 13 Oeste 17 Oeste 0 -- -- 81
2019-10-01 02:00:00 15.5 7 Oeste 17 Oeste 0 -- -- 77
2019-10-01 01:00:00 17.2 15 Oeste 20 Oeste 0 -- -- 71
2019-10-01 00:00:00 17.7 16 Oeste 21 Oeste 0 -- -- 67
2019-09-30 23:00:00 19.3 17 Oeste 22 Oeste 0 -- -- 60
2019-09-30 22:00:00 20.9 15 Noroeste 19 Oeste 0 -- -- 54
2019-09-30 21:00:00 22 9 Oeste 17 Oeste 0 -- -- 47
2019-09-30 20:00:00 23.9 18 Oeste 36 Sudoeste 0 -- -- 42
2019-09-30 19:00:00 26.3 27 Oeste 37 Oeste 0 -- -- 34
2019-09-30 18:00:00 27 20 Oeste 34 Oeste 0 -- -- 40
2019-09-30 17:00:00 26.8 18 Oeste 27 Sudoeste 0 -- -- 42
2019-09-30 16:00:00 26.5 17 Oeste 27 Sudoeste 0 -- -- 42
2019-09-30 15:00:00 25.8 13 Sudoeste 25 Sudoeste 0 -- -- 47
2019-09-30 14:00:00 24.4 14 Sudoeste 24 Oeste 0 -- -- 52
2019-09-30 13:00:00 22.6 8 Oeste 16 Oeste 0 -- -- 60
2019-09-30 12:00:00 19.3 4 Sudoeste 9 Oeste 0 -- -- 76
2019-09-30 11:00:00 15.3 5 Oeste 10 Sudoeste 0 -- -- 97
2019-09-30 10:00:00 14 6 Oeste 10 Oeste 0 -- -- 97
2019-09-30 09:00:00 13.9 5 Oeste 9 Oeste 0 -- -- 96
2019-09-30 08:00:00 13.1 6 Sudoeste 9 Sudoeste 0 -- -- 96
2019-09-30 07:00:00 12.9 4 Sudoeste 7 Sudeste 0 -- -- 93
2019-09-30 06:00:00 13.3 4 Sur 10 Sudeste 0 -- -- 92
2019-09-30 05:00:00 13.8 8 Sudeste 10 Sudeste 0 -- -- 90
2019-09-30 04:00:00 14.3 3 Sudoeste 14 Sudoeste 0 -- -- 90
2019-09-30 03:00:00 14.6 9 Oeste 23 Oeste 0 -- -- 87
2019-09-30 02:00:00 15.9 18 Oeste 24 Oeste 0 -- -- 83
2019-09-30 01:00:00 16.1 15 Oeste 23 Oeste 0 -- -- 80
2019-09-30 00:00:00 16.5 15 Oeste 18 Oeste 0 -- -- 77
2019-09-29 23:00:00 18.3 13 Oeste 19 Oeste 0 -- -- 71
2019-09-29 22:00:00 19.3 12 Oeste 19 Oeste 0 -- -- 61
2019-09-29 21:00:00 20.7 13 Oeste 20 Oeste 0 -- -- 51
2019-09-29 20:00:00 23.1 14 Oeste 29 Oeste 0 -- -- 41
2019-09-29 19:00:00 25.2 21 Oeste 35 Sudoeste 0 -- -- 37
2019-09-29 18:00:00 26 27 Oeste 41 Oeste 0 -- -- 33
2019-09-29 17:00:00 26.3 26 Sudoeste 37 Sudoeste 0 -- -- 31
2019-09-29 16:00:00 25.9 26 Sudoeste 40 Sudoeste 0 -- -- 32
2019-09-29 15:00:00 25.4 25 Oeste 37 Sudoeste 0 -- -- 32
2019-09-29 14:00:00 24.4 22 Oeste 38 Sudoeste 0 -- -- 34
2019-09-29 13:00:00 22.6 21 Sudoeste 31 Sudoeste 0 -- -- 33
2019-09-29 12:00:00 20 20 Oeste 27 Oeste 0 -- -- 37
2019-09-29 11:00:00 16.4 14 Sudoeste 18 Oeste 0 -- -- 56
2019-09-29 10:00:00 14.5 13 Oeste 18 Sudoeste 0 -- -- 65
2019-09-29 09:00:00 10.5 13 Oeste 16 Sudoeste 0 -- -- 73
2019-09-29 08:00:00 10 10 Sudoeste 14 Sudoeste 0 -- -- 71
2019-09-29 07:00:00 11.4 11 Sudoeste 13 Sudoeste 0 -- -- 61
2019-09-29 06:00:00 12.5 8 Sudoeste 14 Oeste 0 -- -- 52
2019-09-29 05:00:00 13.1 12 Oeste 14 Oeste 0 -- -- 50
2019-09-29 04:00:00 14.4 4 Sudoeste 9 Sudoeste 0 -- -- 50
2019-09-29 03:00:00 15.6 6 Oeste -- -- 0 -- -- 43
2019-09-29 02:00:00 16.2 10 Oeste 14 Oeste 0 -- -- 42
2019-09-29 01:00:00 16.8 10 Oeste 14 Oeste 0 -- -- 37
2019-09-29 00:00:00 17.7 11 Oeste 13 Oeste 0 -- -- 36
2019-09-28 23:00:00 18.8 8 Oeste 15 Oeste 0 -- -- 32
2019-09-28 22:00:00 19.4 13 Oeste 15 Oeste 0 -- -- 30
2019-09-28 21:00:00 20.1 12 Oeste 17 Oeste 0 -- -- 26
2019-09-28 20:00:00 23.1 14 Oeste 23 Oeste 0 -- -- 25
2019-09-28 19:00:00 25.8 13 Oeste 22 Sudoeste 0 -- -- 27
2019-09-28 18:00:00 26.3 12 Sudoeste 24 Oeste 0 -- -- 25
2019-09-28 17:00:00 26.1 11 Oeste 22 Sudoeste 0 -- -- 25
2019-09-28 16:00:00 24.3 6 Sudeste 18 Sur 0 -- -- 32
2019-09-28 15:00:00 22.9 6 Sudoeste 15 Sur 0 -- -- 38
2019-09-28 14:00:00 20.8 8 Este 18 Este 0 -- -- 47
2019-09-28 13:00:00 19 7 Sudeste 18 Este 0 -- -- 57
2019-09-28 12:00:00 16.8 9 Este 18 Este 0 -- -- 68
2019-09-28 11:00:00 13.9 10 Este 14 Este 0 -- -- 81
2019-09-28 10:00:00 11.3 6 Este 9 Nordeste 0 -- -- 93
2019-09-28 09:00:00 9.2 7 Nordeste 9 Nordeste 0 -- -- 96
2019-09-28 08:00:00 10.2 2 Nordeste 4 Nordeste 0 -- -- 96
2019-09-28 07:00:00 10.6 0 Calma 2 Norte 0 -- -- 94
2019-09-28 06:00:00 10.4 0 Calma 6 Sudoeste 0 -- -- 92
2019-09-28 05:00:00 11.1 4 Sudoeste 7 Sudeste 0 -- -- 93
2019-09-28 04:00:00 10.9 3 Este 9 Sudoeste 0 -- -- 89
2019-09-28 03:00:00 11.4 6 Sur 8 Sudeste 0 -- -- 90
2019-09-28 02:00:00 12.4 3 Sudoeste 8 Sur 0 -- -- 85
2019-09-28 01:00:00 12.5 6 Sudoeste 12 Oeste 0 -- -- 85
2019-09-28 00:00:00 12.9 8 Oeste 18 Oeste 0 -- -- 84
2019-09-27 23:00:00 14.9 15 Oeste 21 Oeste 0 -- -- 75
2019-09-27 22:00:00 16.1 16 Noroeste 24 Noroeste 0 -- -- 71
2019-09-27 21:00:00 17.3 14 Oeste 27 Oeste 0 -- -- 67
2019-09-27 20:00:00 19.4 19 Oeste 31 Oeste 0 -- -- 60
2019-09-27 19:00:00 21.6 24 Oeste 37 Oeste 0 -- -- 54
2019-09-27 18:00:00 22.4 24 Oeste 47 Oeste 0 -- -- 52
2019-09-27 17:00:00 23.7 22 Oeste 40 Oeste 0 -- -- 47
2019-09-27 16:00:00 23.9 26 Oeste 39 Sudoeste 0 -- -- 46
2019-09-27 15:00:00 22.9 22 Oeste 33 Oeste 0 -- -- 49
2019-09-27 14:00:00 22 19 Oeste 32 Oeste 0 -- -- 51
2019-09-27 13:00:00 20.4 14 Oeste 25 Oeste 0 -- -- 55
2019-09-27 12:00:00 17.5 12 Oeste 23 Oeste 0 -- -- 66
2019-09-27 11:00:00 14.2 9 Oeste 15 Sudoeste 0 -- -- 81
2019-09-27 10:00:00 11.9 9 Sudoeste 12 Sudoeste 0 -- -- 94
2019-09-27 09:00:00 10 9 Oeste 18 Sudoeste 0 -- -- 96
2019-09-27 08:00:00 9.6 17 Oeste 21 Sudoeste 0 -- -- 94
2019-09-27 07:00:00 10 13 Sudoeste 17 Sudoeste 0 -- -- 92
2019-09-27 06:00:00 10.8 16 Oeste 20 Oeste 0 -- -- 89
2019-09-27 05:00:00 11.5 17 Oeste 24 Oeste 0 -- -- 87
2019-09-27 04:00:00 13.7 20 Oeste 24 Oeste 0 -- -- 80
2019-09-27 03:00:00 13.1 15 Oeste 22 Oeste 0 -- -- 80
2019-09-27 02:00:00 14.1 16 Oeste 22 Oeste 0 -- -- 75
2019-09-27 01:00:00 15.3 18 Oeste 21 Oeste 0 -- -- 72
2019-09-27 00:00:00 15.5 19 Oeste 23 Oeste 0 -- -- 69
2019-09-26 23:00:00 16.1 17 Oeste 24 Oeste 0 -- -- 64
2019-09-26 22:00:00 16.8 19 Oeste 24 Oeste 0 -- -- 55
2019-09-26 21:00:00 18.1 18 Oeste 31 Oeste 0 -- -- 47
2019-09-26 20:00:00 21.7 23 Oeste 31 Oeste 0 -- -- 37
2019-09-26 19:00:00 24 25 Oeste 32 Oeste 0 -- -- 28
2019-09-26 18:00:00 24.8 22 Oeste 34 Oeste 0 -- -- 29
2019-09-26 17:00:00 24.9 23 Oeste 35 Oeste 0 -- -- 24
2019-09-26 16:00:00 24.2 24 Sudoeste 34 Sudoeste 0 -- -- 27
2019-09-26 15:00:00 23 21 Oeste 30 Sudoeste 0 -- -- 37
2019-09-26 14:00:00 21.6 17 Oeste 28 Sudoeste 0 -- -- 47
2019-09-26 13:00:00 19.1 19 Oeste 27 Oeste 0 -- -- 54
2019-09-26 12:00:00 16.8 17 Sudoeste 25 Sudoeste 0 -- -- 65
2019-09-26 11:00:00 14.1 14 Sudoeste 18 Oeste 0 -- -- 78
2019-09-26 10:00:00 11.6 7 Sudoeste 11 Sudoeste 0 -- -- 95
2019-09-26 09:00:00 9.7 7 Oeste 16 Sudoeste 0 -- -- 97
2019-09-26 08:00:00 9.1 13 Sudoeste 15 Sudoeste 0 -- -- 96
2019-09-26 07:00:00 9.3 10 Oeste 17 Oeste 0 -- -- 94
2019-09-26 06:00:00 9.5 6 Oeste 13 Sudoeste 0 -- -- 92
2019-09-26 05:00:00 10.4 12 Sudoeste 15 Sudoeste 0 -- -- 90
2019-09-26 04:00:00 10.5 8 Sudoeste 15 Oeste 0 -- -- 90
2019-09-26 03:00:00 11.4 10 Sudoeste 17 Oeste 0 -- -- 87
2019-09-26 02:00:00 11.7 12 Oeste 17 Oeste 0 -- -- 86
2019-09-26 01:00:00 12.4 14 Oeste 20 Oeste 0 -- -- 83
2019-09-26 00:00:00 13.8 8 Oeste 19 Oeste 0 -- -- 76
2019-09-25 23:00:00 14.5 13 Oeste 22 Oeste 0 -- -- 73
2019-09-25 22:00:00 15.3 14 Oeste 20 Oeste 0 -- -- 69
2019-09-25 21:00:00 16.5 14 Oeste 29 Oeste 0 -- -- 64
2019-09-25 20:00:00 18.3 21 Oeste 32 Oeste 0 -- -- 57
2019-09-25 19:00:00 20.4 21 Oeste 41 Oeste 0 -- -- 50
2019-09-25 18:00:00 21.2 22 Oeste 33 Sudoeste 0 -- -- 47
2019-09-25 17:00:00 21.2 21 Sudoeste 32 Sudoeste 0 -- -- 49
2019-09-25 16:00:00 20.7 16 Oeste 30 Oeste 0 -- -- 46
2019-09-25 15:00:00 20.2 16 Oeste 29 Oeste 0 -- -- 48
2019-09-25 14:00:00 18.9 8 Sur 22 Sur 0 -- -- 51
2019-09-25 13:00:00 17.7 9 Sur 15 Sur 0 -- -- 54
2019-09-25 12:00:00 15.4 4 Sudoeste 10 Sudoeste 0 -- -- 66
2019-09-25 11:00:00 12.6 6 Oeste 19 Oeste 0 -- -- 79
2019-09-25 10:00:00 10.8 14 Oeste 19 Oeste 0 -- -- 91
2019-09-25 09:00:00 8.7 5 Sudoeste 13 Oeste 0 -- -- 95
2019-09-25 08:00:00 8 11 Oeste 13 Oeste 0 -- -- 94
2019-09-25 07:00:00 8.8 13 Oeste 17 Oeste 0 -- -- 92
2019-09-25 06:00:00 8.9 15 Oeste 22 Oeste 0 -- -- 90
2019-09-25 05:00:00 9.2 19 Oeste 24 Oeste 0 -- -- 89
2019-09-25 04:00:00 9.7 19 Oeste 25 Oeste 0 -- -- 88
2019-09-25 03:00:00 9.8 11 Oeste 17 Sudoeste 0 -- -- 92
2019-09-25 02:00:00 10.7 10 Oeste 24 Oeste 0 -- -- 89
2019-09-25 01:00:00 11.8 15 Oeste 19 Oeste 0 -- -- 88
2019-09-25 00:00:00 12.8 11 Oeste 27 Oeste 0 -- -- 82
2019-09-24 23:00:00 13.9 23 Oeste 35 Oeste 0 -- -- 76
2019-09-24 22:00:00 14.6 19 Oeste 31 Oeste 0 -- -- 69
2019-09-24 21:00:00 16.4 25 Oeste 38 Oeste 0 -- -- 65
2019-09-24 20:00:00 18.3 31 Oeste 47 Oeste 0 -- -- 56
2019-09-24 19:00:00 20.3 31 Oeste 54 Oeste 0 -- -- 56
2019-09-24 18:00:00 20.6 38 Oeste 52 Sudoeste 0 -- -- 59
2019-09-24 17:00:00 21.4 35 Oeste 50 Oeste 0 -- -- 59
2019-09-24 16:00:00 19.8 26 Oeste 42 Oeste 0 -- -- 68
2019-09-24 15:00:00 19.3 27 Oeste 36 Sudoeste 0 -- -- 72
2019-09-24 14:00:00 17.2 24 Sudoeste 37 Sudoeste 0 -- -- 81
2019-09-24 13:00:00 17 29 Sudoeste 40 Sudoeste 0 -- -- 81
2019-09-24 12:00:00 16.2 28 Sudoeste 38 Sudoeste 0 -- -- 84
2019-09-24 11:00:00 13.8 19 Sudoeste 31 Sudoeste 0 -- -- 93
2019-09-24 10:00:00 13.1 19 Sudoeste 26 Sudoeste 0 -- -- 92
2019-09-24 09:00:00 12.4 16 Sudoeste 26 Sudoeste 0 -- -- 91
2019-09-24 08:00:00 11.8 16 Sudoeste 28 Sudoeste 0 -- -- 94
2019-09-24 07:00:00 11 17 Sudoeste 22 Sudoeste 0 -- -- 96
2019-09-24 06:00:00 11 16 Sudoeste 23 Oeste 0 -- -- 94
2019-09-24 05:00:00 11.2 15 Oeste 23 Oeste 0 -- -- 93
2019-09-24 04:00:00 11.4 17 Sudoeste 24 Oeste 0 -- -- 91
2019-09-24 03:00:00 12.7 18 Sudoeste 27 Sudoeste 0 -- -- 86
2019-09-24 02:00:00 12.6 18 Oeste 21 Oeste 0 -- -- 85
2019-09-24 01:00:00 13.1 15 Oeste 24 Oeste 0 -- -- 82
2019-09-24 00:00:00 14.5 18 Oeste 25 Oeste 0 -- -- 76
2019-09-23 23:00:00 15.3 16 Oeste 21 Oeste 0 -- -- 70
2019-09-23 22:00:00 15.9 11 Sudoeste 14 Sudoeste 0 -- -- 66
2019-09-23 21:00:00 17.4 8 Oeste 18 Oeste 0 -- -- 60
2019-09-23 20:00:00 19.6 17 Oeste 27 Oeste 0 -- -- 53
2019-09-23 19:00:00 21 20 Oeste 35 Oeste 0 -- -- 49
2019-09-23 18:00:00 21.4 27 Sudoeste 37 Sudoeste 0 -- -- 45
2019-09-23 17:00:00 21.9 21 Oeste 34 Oeste 0 -- -- 44
2019-09-23 16:00:00 20.4 21 Sudoeste 33 Sudoeste 0 -- -- 49
2019-09-23 15:00:00 19.9 22 Oeste 33 Sudoeste 0 -- -- 50
2019-09-23 14:00:00 18.3 17 Oeste 30 Sudoeste 0 -- -- 58
2019-09-23 13:00:00 16.4 16 Sudoeste 26 Sudoeste 0 -- -- 65
2019-09-23 12:00:00 14.9 16 Sudoeste 23 Sudoeste 0 -- -- 71
2019-09-23 11:00:00 12.7 13 Sudoeste 18 Sudoeste 0 -- -- 84
2019-09-23 10:00:00 11.2 12 Oeste 16 Sudoeste 0 -- -- 94
2019-09-23 09:00:00 9 4 Sudoeste 10 Sur 0 -- -- 96
2019-09-23 08:00:00 8.3 5 Sudoeste 13 Oeste 0 -- -- 96
2019-09-23 07:00:00 8.6 12 Oeste 13 Oeste 0 -- -- 95
2019-09-23 06:00:00 9.1 11 Oeste 13 Oeste 0 -- -- 94
2019-09-23 05:00:00 9.1 11 Oeste 15 Oeste 0 -- -- 93
2019-09-23 04:00:00 9.6 8 Oeste 17 Oeste 0 -- -- 91
2019-09-23 03:00:00 10.2 14 Oeste 19 Oeste 0 -- -- 89
2019-09-23 02:00:00 10.7 13 Oeste 18 Oeste 0 -- -- 87
2019-09-23 01:00:00 10.9 14 Sudoeste 19 Oeste 0 -- -- 86
2019-09-23 00:00:00 11.4 17 Oeste 22 Oeste 0 -- -- 83
2019-09-22 23:00:00 12.2 12 Oeste 20 Oeste 0 -- -- 78
2019-09-22 22:00:00 13.1 12 Oeste 19 Oeste 0 -- -- 74
2019-09-22 21:00:00 14.2 16 Oeste 21 Oeste 0 -- -- 68
2019-09-22 20:00:00 16.4 17 Oeste 36 Oeste 0 -- -- 57
2019-09-22 19:00:00 17.7 15 Oeste 23 Oeste 0 -- -- 51
2019-09-22 18:00:00 18 11 Oeste 28 Oeste 0 -- -- 50
2019-09-22 17:00:00 18.6 23 Sudoeste 44 Sudoeste 0 -- -- 48
2019-09-22 16:00:00 17.4 17 Oeste 31 Oeste 0 -- -- 56
2019-09-22 15:00:00 17.1 19 Oeste 36 Oeste 0 -- -- 57
2019-09-22 14:00:00 16.8 26 Sudoeste 36 Sudoeste 0 -- -- 61
2019-09-22 13:00:00 15.5 20 Oeste 35 Sudoeste 0 -- -- 74
2019-09-22 12:00:00 14.7 19 Sudoeste 28 Oeste 0 -- -- 80
2019-09-22 11:00:00 12.7 16 Sudoeste 22 Sudoeste 0 -- -- 95
2019-09-22 10:00:00 11.3 16 Sudoeste 21 Sudoeste 0 -- -- 97
2019-09-22 09:00:00 10.5 13 Sudoeste 20 Sudoeste 0 -- -- 98
2019-09-22 08:00:00 10.1 15 Sudoeste 20 Sudoeste 0 -- -- 98
2019-09-22 07:00:00 10.6 14 Sudoeste 18 Sudoeste 0 -- -- 98
2019-09-22 06:00:00 10.5 13 Sudoeste 17 Sudoeste 0 -- -- 98
2019-09-22 05:00:00 10.4 13 Sudoeste 26 Sudoeste 0 -- -- 98
2019-09-22 04:00:00 10.4 14 Sudoeste 23 Oeste 0 -- -- 98
2019-09-22 03:00:00 10.9 19 Oeste 26 Sudoeste 0 -- -- 97
2019-09-22 02:00:00 11.4 21 Sudoeste 32 Oeste 0 -- -- 98
2019-09-22 01:00:00 11.1 23 Oeste 41 Oeste 0 -- -- 97
2019-09-22 00:00:00 11.4 32 Oeste 47 Sudoeste 0 -- -- 95
2019-09-21 23:00:00 15.1 35 Sudoeste 48 Sudoeste 0 -- -- 96
2019-09-21 22:00:00 15.5 31 Sudoeste 44 Sudoeste 0.6 -- -- 93
2019-09-21 21:00:00 15.9 23 Sudoeste 41 Sudoeste 0 -- -- 91
2019-09-21 20:00:00 15.8 27 Sudoeste 39 Sur 0 -- -- 92
2019-09-21 19:00:00 16.2 31 Sudoeste 50 Sudoeste 0 -- -- 90
2019-09-21 18:00:00 17.8 28 Sudoeste 50 Sudoeste 0 -- -- 78
2019-09-21 17:00:00 17.7 36 Sudoeste 57 Sudoeste 0 -- -- 80
2019-09-21 16:00:00 18.4 25 Sudoeste 41 Sudoeste 0 -- -- 78
2019-09-21 15:00:00 17 18 Sudoeste 32 Sudoeste 0 -- -- 85
2019-09-21 14:00:00 15.6 19 Sudoeste 36 Sudoeste 0 -- -- 95
2019-09-21 13:00:00 16.2 23 Sudoeste 32 Sudoeste 0 -- -- 85
2019-09-21 12:00:00 15.3 18 Sur 31 Sudoeste 0 -- -- 91
2019-09-21 11:00:00 15.3 15 Sur 22 Sur 0 -- -- 87
2019-09-21 10:00:00 14.9 10 Sur 21 Sur 0.2 -- -- 87
2019-09-21 09:00:00 15 13 Sur 17 Sur 0 -- -- 80
2019-09-21 08:00:00 15 13 Sur 20 Sur 0 -- -- 81
2019-09-21 07:00:00 15.7 17 Sur 26 Sudoeste 0 -- -- 79
2019-09-21 06:00:00 15.7 16 Sudoeste 29 Sudoeste 0 -- -- 78
2019-09-21 05:00:00 15.1 15 Sudoeste 24 Sur 0 -- -- 78
2019-09-21 04:00:00 14.5 17 Sudoeste 24 Sudoeste 0 -- -- 79
2019-09-21 03:00:00 15.4 14 Sudoeste 26 Sudoeste 0 -- -- 75
2019-09-21 02:00:00 16.5 16 Sudoeste 25 Sudoeste 0 -- -- 73
2019-09-21 01:00:00 17.1 14 Sudoeste 17 Sudoeste 0 -- -- 72
2019-09-21 00:00:00 16.8 12 Sudoeste 16 Sudoeste 0 -- -- 69
2019-09-20 23:00:00 18.9 13 Sudoeste 22 Sudoeste 0 -- -- 60
2019-09-20 22:00:00 19.1 17 Sudoeste 23 Sudoeste 0 -- -- 55
2019-09-20 21:00:00 20.1 18 Sudoeste 31 Sudoeste 0 -- -- 53
2019-09-20 20:00:00 21.9 16 Sudoeste 35 Sudoeste 0 -- -- 50
2019-09-20 19:00:00 22.6 21 Sudoeste 38 Sudoeste 0 -- -- 46
2019-09-20 18:00:00 25.1 26 Sudoeste 39 Sudoeste 0 -- -- 41
2019-09-20 17:00:00 25.7 24 Sudoeste 38 Sudoeste 0 -- -- 39
2019-09-20 16:00:00 25.5 13 Sudoeste 28 Sudoeste 0 -- -- 38
2019-09-20 15:00:00 23.1 14 Sudoeste 33 Sudoeste 0 -- -- 47
2019-09-20 14:00:00 24.6 19 Sudoeste 42 Sudoeste 0 -- -- 45
2019-09-20 13:00:00 22.4 15 Sudoeste 28 Sudoeste 0 -- -- 52
2019-09-20 12:00:00 22.2 19 Sudoeste 25 Sudoeste 0 -- -- 53
2019-09-20 11:00:00 19.5 11 Este 20 Este 0 -- -- 68
2019-09-20 10:00:00 17.7 10 Este 15 Este 0 -- -- 76
2019-09-20 09:00:00 15.7 9 Nordeste 20 Nordeste 0 -- -- 83
2019-09-20 08:00:00 15.6 14 Nordeste 20 Nordeste 0 -- -- 82
2019-09-20 07:00:00 15.4 11 Nordeste 17 Nordeste 0 -- -- 80
2019-09-20 06:00:00 15.8 10 Nordeste 20 Nordeste 0 -- -- 75
2019-09-20 05:00:00 16.3 15 Nordeste 21 Nordeste 0 -- -- 71
2019-09-20 04:00:00 16.8 12 Nordeste 16 Nordeste 0 -- -- 64
2019-09-20 03:00:00 17.9 8 Nordeste 12 Nordeste 0 -- -- 57
2019-09-20 02:00:00 18.5 8 Este 12 Este 0 -- -- 54
2019-09-20 01:00:00 19.3 7 Este 12 Sudeste 0 -- -- 54
2019-09-20 00:00:00 19.8 10 Sudeste 18 Nordeste 0 -- -- 53
2019-09-19 23:00:00 20.5 12 Este 19 Este 0 -- -- 52
2019-09-19 22:00:00 21 8 Nordeste 13 Nordeste 0 -- -- 52
2019-09-19 21:00:00 22.3 6 Este 9 Este 0 -- -- 47
2019-09-19 20:00:00 23.9 9 Este 18 Este 0 -- -- 43
2019-09-19 19:00:00 26.5 10 Este 20 Este 0 -- -- 36
2019-09-19 18:00:00 26.9 10 Este 23 Este 0 -- -- 35
2019-09-19 17:00:00 26.6 6 Nordeste 20 Sudeste 0 -- -- 38
2019-09-19 16:00:00 26.1 10 Sudeste 25 Este 0 -- -- 39
2019-09-19 15:00:00 25.3 16 Este 30 Nordeste 0 -- -- 43
2019-09-19 14:00:00 24.3 15 Este 28 Nordeste 0 -- -- 46
2019-09-19 13:00:00 22.9 13 Este 25 Este 0 -- -- 55
2019-09-19 12:00:00 20.9 14 Nordeste 24 Este 0 -- -- 64
2019-09-19 11:00:00 19.2 17 Nordeste 27 Nordeste 0 -- -- 72
2019-09-19 10:00:00 17.3 16 Nordeste 26 Nordeste 0 -- -- 82
2019-09-19 09:00:00 15.2 14 Nordeste 21 Nordeste 0 -- -- 91
2019-09-19 08:00:00 14.8 15 Nordeste 21 Nordeste 0 -- -- 92
2019-09-19 07:00:00 14.7 13 Nordeste 17 Nordeste 0 -- -- 92
2019-09-19 06:00:00 15.1 11 Nordeste 18 Nordeste 0 -- -- 90
2019-09-19 05:00:00 15.4 13 Nordeste 15 Nordeste 0 -- -- 87
2019-09-19 04:00:00 15.9 8 Nordeste 17 Nordeste 0 -- -- 84
2019-09-19 03:00:00 16.4 8 Nordeste 14 Nordeste 0 -- -- 78
2019-09-19 02:00:00 17.6 8 Este 12 Este 0 -- -- 69
2019-09-19 01:00:00 18.3 9 Este 15 Este 0 -- -- 66
2019-09-19 00:00:00 18.8 8 Este 20 Este 0 -- -- 64
2019-09-18 23:00:00 20.1 13 Nordeste 19 Nordeste 0 -- -- 60
2019-09-18 22:00:00 20.1 8 Este 12 Este 0 -- -- 56
2019-09-18 21:00:00 21.6 6 Este 10 Este 0 -- -- 50
2019-09-18 20:00:00 23.9 10 Este 18 Este 0 -- -- 45
2019-09-18 19:00:00 25.7 9 Este 18 Este 0 -- -- 40
2019-09-18 18:00:00 25.7 10 Nordeste 19 Este 0 -- -- 40
2019-09-18 17:00:00 25.6 5 Norte 22 Nordeste 0 -- -- 41
2019-09-18 16:00:00 25.1 6 Este 27 Nordeste 0 -- -- 42
2019-09-18 15:00:00 24.1 6 Este 21 Este 0 -- -- 48
2019-09-18 14:00:00 23 9 Nordeste 23 Nordeste 0 -- -- 52
2019-09-18 13:00:00 21.6 14 Este 23 Este 0 -- -- 59
2019-09-18 12:00:00 19.5 13 Este 23 Este 0 -- -- 67
2019-09-18 11:00:00 17.7 13 Este 19 Este 0 -- -- 76
2019-09-18 10:00:00 16 10 Este 14 Este 0 -- -- 84
2019-09-18 09:00:00 13.4 6 Nordeste 10 Nordeste 0 -- -- 94
2019-09-18 08:00:00 13.1 10 Nordeste 14 Nordeste 0 -- -- 93
2019-09-18 07:00:00 13.8 12 Nordeste 22 Nordeste 0 -- -- 90
2019-09-18 06:00:00 13.9 14 Nordeste 21 Nordeste 0 -- -- 88
2019-09-18 05:00:00 14.3 13 Nordeste 21 Nordeste 0 -- -- 88
2019-09-18 04:00:00 14.7 13 Este 28 Este 0 -- -- 88
2019-09-18 03:00:00 15.1 16 Nordeste 31 Este 0 -- -- 79
2019-09-18 02:00:00 15.6 14 Norte 16 Norte 0 -- -- 77
2019-09-18 01:00:00 15.8 10 Norte 16 Este 0 -- -- 76
2019-09-18 00:00:00 16.5 11 Sudeste 23 Sudeste 0 -- -- 72
2019-09-17 23:00:00 17.7 12 Sudeste 18 Sur 0 -- -- 63
2019-09-17 22:00:00 19.1 5 Noroeste 26 Noroeste 0 -- -- 60
2019-09-17 21:00:00 19.5 11 Noroeste 14 Noroeste 0 -- -- 53